createdAt,value
2023-06-14T00:00:08.997Z,9.15
2023-06-14T00:00:21.241Z,8.60
2023-06-14T00:00:33.083Z,7.57
2023-06-14T00:00:45.381Z,6.90
2023-06-14T00:00:57.674Z,7.07
2023-06-14T00:01:10.606Z,6.38
2023-06-14T00:01:23.055Z,7.05
2023-06-14T00:01:36.449Z,6.95
2023-06-14T00:01:48.399Z,6.55
2023-06-14T00:02:00.270Z,7.95
2023-06-14T00:02:12.189Z,7.35
2023-06-14T00:02:24.044Z,6.63
2023-06-14T00:02:36.961Z,6.00
2023-06-14T00:02:49.469Z,5.55
2023-06-14T00:03:01.965Z,5.97
2023-06-14T00:03:18.573Z,6.50
2023-06-14T00:03:33.132Z,6.85
2023-06-14T00:03:45.150Z,6.68
2023-06-14T00:03:57.221Z,6.93
2023-06-14T00:04:09.825Z,7.05
2023-06-14T00:04:23.030Z,7.47
2023-06-14T00:04:34.967Z,6.93
2023-06-14T00:04:49.310Z,8.05
2023-06-14T00:05:01.320Z,8.27
2023-06-14T00:05:13.353Z,7.30
2023-06-14T00:05:27.258Z,7.78
2023-06-14T00:05:42.079Z,8.05
2023-06-14T00:05:54.790Z,7.40
2023-06-14T00:06:06.681Z,7.75
2023-06-14T00:06:18.413Z,6.88
2023-06-14T00:06:30.253Z,7.15
2023-06-14T00:06:42.686Z,6.45
2023-06-14T00:06:54.837Z,7.40
2023-06-14T00:07:09.262Z,7.82
2023-06-14T00:07:35.924Z,7.38
2023-06-14T00:07:49.429Z,6.50
2023-06-14T00:08:01.593Z,7.18
2023-06-14T00:08:13.485Z,8.10
2023-06-14T00:08:26.632Z,7.65
2023-06-14T00:08:38.669Z,7.43
2023-06-14T00:08:52.236Z,7.57
2023-06-14T00:09:04.270Z,7.70
2023-06-14T00:09:18.530Z,6.95
2023-06-14T00:09:30.257Z,6.88
2023-06-14T00:09:42.220Z,6.47
2023-06-14T00:09:53.942Z,6.57
2023-06-14T00:10:06.579Z,6.07
2023-06-14T00:10:19.550Z,6.20
2023-06-14T00:10:32.395Z,6.30
2023-06-14T00:10:44.176Z,6.03
2023-06-14T00:10:55.859Z,7.13
2023-06-14T00:11:07.620Z,8.05
2023-06-14T00:11:19.386Z,7.70
2023-06-14T00:11:31.707Z,7.40
2023-06-14T00:11:43.770Z,7.55
2023-06-14T00:11:55.484Z,6.55
2023-06-14T00:12:09.928Z,6.35
2023-06-14T00:12:21.732Z,7.22
2023-06-14T00:12:33.502Z,7.15
2023-06-14T00:12:45.200Z,6.70
2023-06-14T00:12:56.907Z,5.97
2023-06-14T00:13:08.692Z,6.05
2023-06-14T00:13:20.427Z,6.63
2023-06-14T00:13:33.178Z,6.95
2023-06-14T00:13:44.923Z,7.47
2023-06-14T00:13:57.234Z,7.47
2023-06-14T00:14:09.277Z,6.82
2023-06-14T00:14:21.013Z,6.68
2023-06-14T00:14:32.753Z,6.95
2023-06-14T00:14:44.514Z,7.15
2023-06-14T00:14:56.455Z,6.82
2023-06-14T00:15:10.644Z,7.30
2023-06-14T00:15:22.537Z,8.45
2023-06-14T00:15:34.572Z,7.97
2023-06-14T00:15:47.462Z,6.72
2023-06-14T00:15:59.286Z,6.82
2023-06-14T00:16:11.062Z,6.45
2023-06-14T00:16:23.909Z,6.25
2023-06-14T00:16:36.339Z,6.95
2023-06-14T00:16:49.332Z,6.93
2023-06-14T00:17:01.162Z,7.47
2023-06-14T00:17:13.016Z,9.57
2023-06-14T00:17:25.917Z,8.57
2023-06-14T00:17:39.950Z,7.70
2023-06-14T00:17:52.018Z,7.05
2023-06-14T00:18:04.286Z,7.35
2023-06-14T00:18:16.070Z,8.10
2023-06-14T00:18:30.613Z,8.27
2023-06-14T00:18:43.378Z,7.72
2023-06-14T00:18:55.066Z,7.15
2023-06-14T00:19:07.466Z,6.95
2023-06-14T00:19:19.176Z,6.45
2023-06-14T00:19:33.991Z,6.45
2023-06-14T00:19:45.757Z,6.57
2023-06-14T00:19:58.005Z,6.45
2023-06-14T00:20:12.443Z,6.45
2023-06-14T00:20:24.176Z,7.30
2023-06-14T00:20:37.922Z,7.60
2023-06-14T00:20:50.170Z,8.48
2023-06-14T00:21:03.286Z,7.53
2023-06-14T00:21:15.431Z,7.07
2023-06-14T00:21:29.608Z,6.65
2023-06-14T00:21:42.701Z,6.53
2023-06-14T00:21:54.403Z,6.50
2023-06-14T00:22:06.632Z,6.13
2023-06-14T00:22:18.416Z,6.90
2023-06-14T00:22:31.900Z,6.75
2023-06-14T00:22:43.811Z,6.40
2023-06-14T00:22:56.254Z,6.05
2023-06-14T00:23:09.090Z,7.28
2023-06-14T00:23:21.401Z,7.75
2023-06-14T00:23:33.161Z,8.13
2023-06-14T00:23:45.003Z,6.47
2023-06-14T00:23:57.006Z,6.70
2023-06-14T00:24:09.400Z,6.65
2023-06-14T00:24:21.218Z,7.65
2023-06-14T00:24:34.008Z,8.52
2023-06-14T00:24:45.766Z,7.68
2023-06-14T00:24:57.611Z,7.03
2023-06-14T00:25:19.954Z,6.38
2023-06-14T00:25:40.233Z,7.93
2023-06-14T00:25:52.936Z,7.15
2023-06-14T00:26:04.857Z,6.93
2023-06-14T00:26:16.764Z,6.63
2023-06-14T00:26:28.510Z,6.55
2023-06-14T00:26:40.330Z,6.32
2023-06-14T00:26:52.064Z,6.13
2023-06-14T00:27:04.537Z,6.07
2023-06-14T00:27:16.621Z,6.18
2023-06-14T00:27:28.307Z,6.82
2023-06-14T00:27:40.010Z,7.07
2023-06-14T00:27:52.769Z,6.80
2023-06-14T00:28:04.860Z,7.32
2023-06-14T00:28:16.563Z,6.72
2023-06-14T00:28:28.317Z,6.63
2023-06-14T00:28:40.106Z,6.65
2023-06-14T00:28:51.856Z,6.78
2023-06-14T00:29:04.580Z,7.57
2023-06-14T00:29:16.339Z,7.40
2023-06-14T00:29:28.037Z,7.00
2023-06-14T00:29:39.751Z,6.63
2023-06-14T00:29:51.539Z,6.82
2023-06-14T00:30:03.260Z,7.87
2023-06-14T00:30:15.501Z,8.15
2023-06-14T00:30:31.963Z,8.05
2023-06-14T00:30:47.431Z,7.15
2023-06-14T00:30:59.175Z,7.00
2023-06-14T00:31:10.881Z,7.45
2023-06-14T00:31:22.633Z,7.10
2023-06-14T00:31:34.414Z,6.95
2023-06-14T00:31:47.114Z,5.97
2023-06-14T00:31:58.919Z,6.00
2023-06-14T00:32:10.814Z,5.80
2023-06-14T00:32:26.855Z,5.95
2023-06-14T00:32:38.976Z,5.50
2023-06-14T00:32:51.473Z,6.05
2023-06-14T00:33:03.468Z,7.38
2023-06-14T00:33:16.289Z,8.80
2023-06-14T00:33:28.013Z,9.90
2023-06-14T00:33:39.800Z,9.43
2023-06-14T00:33:51.628Z,8.50
2023-06-14T00:34:03.366Z,7.22
2023-06-14T00:34:15.292Z,7.03
2023-06-14T00:34:26.975Z,6.72
2023-06-14T00:34:38.676Z,7.53
2023-06-14T00:34:51.351Z,7.35
2023-06-14T00:35:03.320Z,6.88
2023-06-14T00:35:15.112Z,6.30
2023-06-14T00:35:26.983Z,7.75
2023-06-14T00:35:40.435Z,7.93
2023-06-14T00:35:54.919Z,7.10
2023-06-14T00:36:06.663Z,7.80
2023-06-14T00:36:19.360Z,8.02
2023-06-14T00:36:31.074Z,7.60
2023-06-14T00:36:42.769Z,7.05
2023-06-14T00:36:54.480Z,7.05
2023-06-14T00:37:06.360Z,6.60
2023-06-14T00:37:18.035Z,7.60
2023-06-14T00:37:29.707Z,8.02
2023-06-14T00:37:41.428Z,8.70
2023-06-14T00:37:53.117Z,7.43
2023-06-14T00:38:05.833Z,6.68
2023-06-14T00:38:17.553Z,6.13
2023-06-14T00:38:29.262Z,5.93
2023-06-14T00:38:41.036Z,5.95
2023-06-14T00:38:52.772Z,6.40
2023-06-14T00:39:04.899Z,7.03
2023-06-14T00:39:16.657Z,7.28
2023-06-14T00:39:29.338Z,7.20
2023-06-14T00:39:41.182Z,7.15
2023-06-14T00:39:52.894Z,5.95
2023-06-14T00:40:05.967Z,6.25
2023-06-14T00:40:18.006Z,6.53
2023-06-14T00:40:30.008Z,8.05
2023-06-14T00:40:42.691Z,8.38
2023-06-14T00:40:54.359Z,6.70
2023-06-14T00:41:06.252Z,6.38
2023-06-14T00:41:18.003Z,7.13
2023-06-14T00:41:29.791Z,7.40
2023-06-14T00:41:41.577Z,7.07
2023-06-14T00:41:53.473Z,6.70
2023-06-14T00:42:06.460Z,6.70
2023-06-14T00:42:26.745Z,6.25
2023-06-14T00:42:38.467Z,6.97
2023-06-14T00:42:50.277Z,7.25
2023-06-14T00:43:02.037Z,6.60
2023-06-14T00:43:13.801Z,6.03
2023-06-14T00:43:25.507Z,6.10
2023-06-14T00:43:37.315Z,6.50
2023-06-14T00:43:50.249Z,7.35
2023-06-14T00:44:02.041Z,7.75
2023-06-14T00:44:15.330Z,7.78
2023-06-14T00:44:27.281Z,7.53
2023-06-14T00:44:38.972Z,7.72
2023-06-14T00:44:50.660Z,8.88
2023-06-14T00:45:02.440Z,9.13
2023-06-14T00:45:15.267Z,7.50
2023-06-14T00:45:26.986Z,8.25
2023-06-14T00:45:38.747Z,8.27
2023-06-14T00:45:52.221Z,7.55
2023-06-14T00:46:04.032Z,6.68
2023-06-14T00:46:15.886Z,6.90
2023-06-14T00:46:27.709Z,6.32
2023-06-14T00:46:40.540Z,6.82
2023-06-14T00:46:52.433Z,7.45
2023-06-14T00:47:04.708Z,7.35
2023-06-14T00:47:16.392Z,7.10
2023-06-14T00:47:28.633Z,7.38
2023-06-14T00:47:42.941Z,7.22
2023-06-14T00:47:56.370Z,6.18
2023-06-14T00:48:09.054Z,6.18
2023-06-14T00:48:21.048Z,5.93
2023-06-14T00:48:33.016Z,7.07
2023-06-14T00:48:44.802Z,7.57
2023-06-14T00:48:57.323Z,8.13
2023-06-14T00:49:09.659Z,6.75
2023-06-14T00:49:21.631Z,6.70
2023-06-14T00:49:33.366Z,6.95
2023-06-14T00:49:46.567Z,7.55
2023-06-14T00:49:59.811Z,7.70
2023-06-14T00:50:12.533Z,7.10
2023-06-14T00:50:24.690Z,7.07
2023-06-14T00:50:37.487Z,6.88
2023-06-14T00:50:50.850Z,7.18
2023-06-14T00:51:05.029Z,6.78
2023-06-14T00:51:17.795Z,7.47
2023-06-14T00:51:29.618Z,7.68
2023-06-14T00:51:41.308Z,8.10
2023-06-14T00:51:53.035Z,7.68
2023-06-14T00:52:05.603Z,8.02
2023-06-14T00:52:17.766Z,6.72
2023-06-14T00:52:30.578Z,6.88
2023-06-14T00:52:42.495Z,6.80
2023-06-14T00:52:55.302Z,7.00
2023-06-14T00:53:07.446Z,8.45
2023-06-14T00:53:19.998Z,7.88
2023-06-14T00:53:32.887Z,7.10
2023-06-14T00:53:48.137Z,7.05
2023-06-14T00:54:00.083Z,6.63
2023-06-14T00:54:11.901Z,6.20
2023-06-14T00:54:24.667Z,7.20
2023-06-14T00:54:36.363Z,7.18
2023-06-14T00:54:48.290Z,6.82
2023-06-14T00:55:00.050Z,6.57
2023-06-14T00:55:12.072Z,6.93
2023-06-14T00:55:23.840Z,7.65
2023-06-14T00:55:35.557Z,7.55
2023-06-14T00:55:47.262Z,6.43
2023-06-14T00:55:59.962Z,5.40
2023-06-14T00:56:14.194Z,5.78
2023-06-14T00:56:26.193Z,5.97
2023-06-14T00:56:38.259Z,5.47
2023-06-14T00:56:49.973Z,5.95
2023-06-14T00:57:01.668Z,6.57
2023-06-14T00:57:13.794Z,7.53
2023-06-14T00:57:25.745Z,6.93
2023-06-14T00:57:41.071Z,6.20
2023-06-14T00:57:52.941Z,6.68
2023-06-14T00:58:04.665Z,6.90
2023-06-14T00:58:16.448Z,6.72
2023-06-14T00:58:28.730Z,6.97
2023-06-14T00:58:40.727Z,8.25
2023-06-14T00:58:53.078Z,8.30
2023-06-14T00:59:05.084Z,7.65
2023-06-14T00:59:18.022Z,6.90
2023-06-14T00:59:29.730Z,6.00
2023-06-14T00:59:44.861Z,6.90
2023-06-14T00:59:56.842Z,6.63
2023-06-14T01:00:10.598Z,5.95
2023-06-14T01:00:22.618Z,6.63
2023-06-14T01:00:34.311Z,8.60
2023-06-14T01:00:46.422Z,8.52
2023-06-14T01:00:59.201Z,9.05
2023-06-14T01:01:11.510Z,7.53
2023-06-14T01:01:23.311Z,7.53
2023-06-14T01:01:35.116Z,7.57
2023-06-14T01:01:46.903Z,8.60
2023-06-14T01:01:58.726Z,7.47
2023-06-14T01:02:10.965Z,6.88
2023-06-14T01:02:22.873Z,6.47
2023-06-14T01:02:35.667Z,6.72
2023-06-14T01:02:47.985Z,7.97
2023-06-14T01:02:59.847Z,8.70
2023-06-14T01:03:13.834Z,8.20
2023-06-14T01:03:26.335Z,6.47
2023-06-14T01:03:40.710Z,6.27
2023-06-14T01:03:52.655Z,6.50
2023-06-14T01:04:04.703Z,6.03
2023-06-14T01:04:16.520Z,6.30
2023-06-14T01:04:28.312Z,6.53
2023-06-14T01:04:41.510Z,6.88
2023-06-14T01:04:54.110Z,6.45
2023-06-14T01:05:08.131Z,6.97
2023-06-14T01:05:20.978Z,6.78
2023-06-14T01:05:32.890Z,6.85
2023-06-14T01:05:45.341Z,6.67
2023-06-14T01:06:06.043Z,7.72
2023-06-14T01:06:30.222Z,7.30
2023-06-14T01:06:47.120Z,6.53
2023-06-14T01:07:10.911Z,6.13
2023-06-14T01:07:29.481Z,6.43
2023-06-14T01:07:53.725Z,6.25
2023-06-14T01:08:16.273Z,6.50
2023-06-14T01:08:32.953Z,7.50
2023-06-14T01:08:50.260Z,7.43
2023-06-14T01:09:08.672Z,7.00
2023-06-14T01:09:27.426Z,7.18
2023-06-14T01:09:47.490Z,7.28
2023-06-14T01:10:10.636Z,7.32
2023-06-14T01:10:33.641Z,6.93
2023-06-14T01:10:52.228Z,5.93
2023-06-14T01:11:09.150Z,7.47
2023-06-14T01:11:26.086Z,6.75
2023-06-14T01:11:45.300Z,5.70
2023-06-14T01:12:03.294Z,6.10
2023-06-14T01:12:26.764Z,5.88
2023-06-14T01:12:46.590Z,5.93
2023-06-14T01:13:03.091Z,7.43
2023-06-14T01:13:21.704Z,7.15
2023-06-14T01:13:36.124Z,6.82
2023-06-14T01:13:50.341Z,7.88
2023-06-14T01:14:03.981Z,7.72
2023-06-14T01:14:15.759Z,6.40
2023-06-14T01:14:28.808Z,6.25
2023-06-14T01:14:40.964Z,6.20
2023-06-14T01:14:52.987Z,6.57
2023-06-14T01:15:06.651Z,6.65
2023-06-14T01:15:18.537Z,8.30
2023-06-14T01:15:31.836Z,8.43
2023-06-14T01:15:44.426Z,10.35
2023-06-14T01:15:56.769Z,9.38
2023-06-14T01:16:09.767Z,7.10
2023-06-14T01:16:21.587Z,6.85
2023-06-14T01:16:37.211Z,6.97
2023-06-14T01:16:54.096Z,6.22
2023-06-14T01:17:06.536Z,8.23
2023-06-14T01:17:18.943Z,7.82
2023-06-14T01:17:32.930Z,6.28
2023-06-14T01:17:46.774Z,6.38
2023-06-14T01:18:03.981Z,7.25
2023-06-14T01:18:19.259Z,7.90
2023-06-14T01:18:31.296Z,7.80
2023-06-14T01:18:43.091Z,7.45
2023-06-14T01:18:57.514Z,7.35
2023-06-14T01:19:13.941Z,6.93
2023-06-14T01:19:27.182Z,7.27
2023-06-14T01:19:38.951Z,6.82
2023-06-14T01:19:58.845Z,6.95
2023-06-14T01:20:15.441Z,7.75
2023-06-14T01:20:31.870Z,8.18
2023-06-14T01:20:45.892Z,6.72
2023-06-14T01:20:59.247Z,6.00
2023-06-14T01:21:21.592Z,6.63
2023-06-14T01:21:42.646Z,7.72
2023-06-14T01:21:54.694Z,8.43
2023-06-14T01:22:06.692Z,6.68
2023-06-14T01:22:19.584Z,5.97
2023-06-14T01:22:33.533Z,5.88
2023-06-14T01:22:52.785Z,5.88
2023-06-14T01:23:04.670Z,7.32
2023-06-14T01:23:17.038Z,8.90
2023-06-14T01:23:33.406Z,7.32
2023-06-14T01:23:46.917Z,7.53
2023-06-14T01:23:59.689Z,8.90
2023-06-14T01:24:12.238Z,7.55
2023-06-14T01:24:26.699Z,6.35
2023-06-14T01:24:40.319Z,6.32
2023-06-14T01:24:56.172Z,5.75
2023-06-14T01:25:09.490Z,6.35
2023-06-14T01:25:22.003Z,7.53
2023-06-14T01:25:33.780Z,7.50
2023-06-14T01:25:45.672Z,6.95
2023-06-14T01:25:57.508Z,6.07
2023-06-14T01:26:09.196Z,5.80
2023-06-14T01:26:21.576Z,5.60
2023-06-14T01:26:34.299Z,5.60
2023-06-14T01:26:47.430Z,5.82
2023-06-14T01:27:00.302Z,5.82
2023-06-14T01:27:12.504Z,5.57
2023-06-14T01:27:25.144Z,6.07
2023-06-14T01:27:37.015Z,6.57
2023-06-14T01:27:50.516Z,6.78
2023-06-14T01:28:11.154Z,7.47
2023-06-14T01:28:24.191Z,6.88
2023-06-14T01:28:36.856Z,6.82
2023-06-14T01:28:49.696Z,6.60
2023-06-14T01:29:01.494Z,6.22
2023-06-14T01:29:18.768Z,6.85
2023-06-14T01:29:33.668Z,6.63
2023-06-14T01:29:47.023Z,5.65
2023-06-14T01:30:00.726Z,6.25
2023-06-14T01:30:13.769Z,6.55
2023-06-14T01:30:26.481Z,6.25
2023-06-14T01:30:39.466Z,6.60
2023-06-14T01:30:54.453Z,6.40
2023-06-14T01:31:07.887Z,5.82
2023-06-14T01:31:22.675Z,6.40
2023-06-14T01:31:42.747Z,6.80
2023-06-14T01:31:54.679Z,6.95
2023-06-14T01:32:07.436Z,6.60
2023-06-14T01:32:19.842Z,6.57
2023-06-14T01:32:31.752Z,6.50
2023-06-14T01:32:43.670Z,6.63
2023-06-14T01:32:56.191Z,7.00
2023-06-14T01:33:08.985Z,6.90
2023-06-14T01:33:23.192Z,5.93
2023-06-14T01:33:37.008Z,5.68
2023-06-14T01:33:50.538Z,6.03
2023-06-14T01:34:02.282Z,7.25
2023-06-14T01:34:14.138Z,7.57
2023-06-14T01:34:25.938Z,7.25
2023-06-14T01:34:38.850Z,7.10
2023-06-14T01:34:50.664Z,6.32
2023-06-14T01:35:02.514Z,8.07
2023-06-14T01:35:14.412Z,8.32
2023-06-14T01:35:26.772Z,6.72
2023-06-14T01:35:38.522Z,6.88
2023-06-14T01:35:52.052Z,6.88
2023-06-14T01:36:05.423Z,6.60
2023-06-14T01:36:17.682Z,6.43
2023-06-14T01:36:29.552Z,5.78
2023-06-14T01:36:43.169Z,5.93
2023-06-14T01:36:56.014Z,7.97
2023-06-14T01:37:07.976Z,8.82
2023-06-14T01:37:20.901Z,7.85
2023-06-14T01:37:33.039Z,6.85
2023-06-14T01:37:45.148Z,7.03
2023-06-14T01:37:58.764Z,7.65
2023-06-14T01:38:11.705Z,7.00
2023-06-14T01:38:25.936Z,6.35
2023-06-14T01:38:38.614Z,5.40
2023-06-14T01:38:51.477Z,5.80
2023-06-14T01:39:03.420Z,6.72
2023-06-14T01:39:16.489Z,6.07
2023-06-14T01:39:29.695Z,5.65
2023-06-14T01:39:43.132Z,6.57
2023-06-14T01:39:54.938Z,6.80
2023-06-14T01:40:08.355Z,6.18
2023-06-14T01:40:20.651Z,6.47
2023-06-14T01:40:32.807Z,8.27
2023-06-14T01:40:44.889Z,8.20
2023-06-14T01:40:58.255Z,9.15
2023-06-14T01:41:11.476Z,8.80
2023-06-14T01:41:23.969Z,8.05
2023-06-14T01:41:36.303Z,6.85
2023-06-14T01:41:48.860Z,5.93
2023-06-14T01:42:01.752Z,7.38
2023-06-14T01:42:14.312Z,7.50
2023-06-14T01:42:26.187Z,6.93
2023-06-14T01:42:39.117Z,6.55
2023-06-14T01:42:51.626Z,6.05
2023-06-14T01:43:04.669Z,6.22
2023-06-14T01:43:17.420Z,6.57
2023-06-14T01:43:31.246Z,6.32
2023-06-14T01:43:43.837Z,6.22
2023-06-14T01:43:56.409Z,6.20
2023-06-14T01:44:08.641Z,6.30
2023-06-14T01:44:22.341Z,6.63
2023-06-14T01:44:34.059Z,6.50
2023-06-14T01:44:46.282Z,6.82
2023-06-14T01:44:58.200Z,7.28
2023-06-14T01:45:10.831Z,7.82
2023-06-14T01:45:23.168Z,7.57
2023-06-14T01:45:35.887Z,7.30
2023-06-14T01:45:49.842Z,6.72
2023-06-14T01:46:02.889Z,6.90
2023-06-14T01:46:16.151Z,7.07
2023-06-14T01:46:27.870Z,6.82
2023-06-14T01:46:39.717Z,6.35
2023-06-14T01:46:52.087Z,6.32
2023-06-14T01:47:04.179Z,7.05
2023-06-14T01:47:16.733Z,7.15
2023-06-14T01:47:29.612Z,7.68
2023-06-14T01:47:41.828Z,6.88
2023-06-14T01:47:53.890Z,6.30
2023-06-14T01:48:06.359Z,7.43
2023-06-14T01:48:18.302Z,7.97
2023-06-14T01:48:30.084Z,6.93
2023-06-14T01:48:42.829Z,7.55
2023-06-14T01:48:54.843Z,7.47
2023-06-14T01:49:06.580Z,6.65
2023-06-14T01:49:18.270Z,6.05
2023-06-14T01:49:29.966Z,6.43
2023-06-14T01:49:41.711Z,6.25
2023-06-14T01:49:53.400Z,7.45
2023-06-14T01:50:07.306Z,7.72
2023-06-14T01:50:20.341Z,7.28
2023-06-14T01:50:32.413Z,5.57
2023-06-14T01:50:44.132Z,6.55
2023-06-14T01:50:55.845Z,6.70
2023-06-14T01:51:07.546Z,7.07
2023-06-14T01:51:20.274Z,6.45
2023-06-14T01:51:32.020Z,7.30
2023-06-14T01:51:43.697Z,7.00
2023-06-14T01:51:55.444Z,6.30
2023-06-14T01:52:10.697Z,5.93
2023-06-14T01:52:23.432Z,7.18
2023-06-14T01:52:35.237Z,7.28
2023-06-14T01:52:47.934Z,6.70
2023-06-14T01:53:01.187Z,6.07
2023-06-14T01:53:12.874Z,6.57
2023-06-14T01:53:24.586Z,6.45
2023-06-14T01:53:37.215Z,6.93
2023-06-14T01:53:49.523Z,6.60
2023-06-14T01:54:01.597Z,6.85
2023-06-14T01:54:13.305Z,6.43
2023-06-14T01:54:26.859Z,6.57
2023-06-14T01:54:42.879Z,6.38
2023-06-14T01:54:54.794Z,6.28
2023-06-14T01:55:07.506Z,6.25
2023-06-14T01:55:19.898Z,6.57
2023-06-14T01:55:38.358Z,6.93
2023-06-14T01:55:50.134Z,7.22
2023-06-14T01:56:02.880Z,7.05
2023-06-14T01:56:14.571Z,7.57
2023-06-14T01:56:27.324Z,7.70
2023-06-14T01:56:39.525Z,7.28
2023-06-14T01:56:51.268Z,6.60
2023-06-14T01:57:03.225Z,6.25
2023-06-14T01:57:14.986Z,6.50
2023-06-14T01:57:28.394Z,6.55
2023-06-14T01:57:40.141Z,6.45
2023-06-14T01:57:51.897Z,7.55
2023-06-14T01:58:03.623Z,6.93
2023-06-14T01:58:17.020Z,6.90
2023-06-14T01:58:28.770Z,5.85
2023-06-14T01:58:41.658Z,6.05
2023-06-14T01:58:53.587Z,5.90
2023-06-14T01:59:05.264Z,7.13
2023-06-14T01:59:17.324Z,7.13
2023-06-14T01:59:29.085Z,5.40
2023-06-14T01:59:40.763Z,5.10
2023-06-14T01:59:52.548Z,5.40
2023-06-14T02:00:05.005Z,5.47
2023-06-14T02:00:19.259Z,6.78
2023-06-14T02:00:31.069Z,7.55
2023-06-14T02:00:44.263Z,7.28
2023-06-14T02:00:56.563Z,6.25
2023-06-14T02:01:09.350Z,7.43
2023-06-14T02:01:22.455Z,7.45
2023-06-14T02:01:35.671Z,6.50
2023-06-14T02:01:47.603Z,6.25
2023-06-14T02:01:59.402Z,6.30
2023-06-14T02:02:12.135Z,7.03
2023-06-14T02:02:23.924Z,6.88
2023-06-14T02:02:36.049Z,6.40
2023-06-14T02:02:48.030Z,7.65
2023-06-14T02:02:59.992Z,8.93
2023-06-14T02:03:12.772Z,8.70
2023-06-14T02:03:25.257Z,9.02
2023-06-14T02:03:39.098Z,8.48
2023-06-14T02:03:52.362Z,8.30
2023-06-14T02:04:04.126Z,7.05
2023-06-14T02:04:15.844Z,6.65
2023-06-14T02:04:27.575Z,7.05
2023-06-14T02:04:39.262Z,6.95
2023-06-14T02:04:50.937Z,6.85
2023-06-14T02:05:02.905Z,7.65
2023-06-14T02:05:16.621Z,7.18
2023-06-14T02:05:28.491Z,6.00
2023-06-14T02:05:40.940Z,5.38
2023-06-14T02:05:52.855Z,7.60
2023-06-14T02:06:04.708Z,9.13
2023-06-14T02:06:16.955Z,9.32
2023-06-14T02:06:29.120Z,7.75
2023-06-14T02:06:41.833Z,7.90
2023-06-14T02:06:53.588Z,7.03
2023-06-14T02:07:05.609Z,6.53
2023-06-14T02:07:17.388Z,6.10
2023-06-14T02:07:29.165Z,6.30
2023-06-14T02:07:40.929Z,7.15
2023-06-14T02:07:52.603Z,6.95
2023-06-14T02:08:06.842Z,7.75
2023-06-14T02:08:18.581Z,8.20
2023-06-14T02:08:30.467Z,7.55
2023-06-14T02:08:42.411Z,8.02
2023-06-14T02:08:54.145Z,7.35
2023-06-14T02:09:05.961Z,6.65
2023-06-14T02:09:18.667Z,6.07
2023-06-14T02:09:30.368Z,6.30
2023-06-14T02:09:42.142Z,5.88
2023-06-14T02:09:54.011Z,5.90
2023-06-14T02:10:06.681Z,6.95
2023-06-14T02:10:18.724Z,7.25
2023-06-14T02:10:30.561Z,6.13
2023-06-14T02:10:42.303Z,6.20
2023-06-14T02:10:54.088Z,7.90
2023-06-14T02:11:06.896Z,8.63
2023-06-14T02:11:18.607Z,7.20
2023-06-14T02:11:30.363Z,6.55
2023-06-14T02:11:42.109Z,6.65
2023-06-14T02:11:53.819Z,5.50
2023-06-14T02:12:06.611Z,5.28
2023-06-14T02:12:18.455Z,5.80
2023-06-14T02:12:30.174Z,7.32
2023-06-14T02:12:42.957Z,6.75
2023-06-14T02:12:54.693Z,6.05
2023-06-14T02:13:06.481Z,6.10
2023-06-14T02:13:18.180Z,7.70
2023-06-14T02:13:30.028Z,7.43
2023-06-14T02:13:41.820Z,6.93
2023-06-14T02:13:53.840Z,5.65
2023-06-14T02:14:05.606Z,6.10
2023-06-14T02:14:18.171Z,6.28
2023-06-14T02:14:30.947Z,7.80
2023-06-14T02:14:45.775Z,7.20
2023-06-14T02:14:57.478Z,6.28
2023-06-14T02:15:11.096Z,6.63
2023-06-14T02:15:23.099Z,7.33
2023-06-14T02:15:35.353Z,7.55
2023-06-14T02:15:47.899Z,7.65
2023-06-14T02:16:00.878Z,8.30
2023-06-14T02:16:12.801Z,8.23
2023-06-14T02:16:25.762Z,7.28
2023-06-14T02:16:37.642Z,8.35
2023-06-14T02:16:50.356Z,8.43
2023-06-14T02:17:02.125Z,7.22
2023-06-14T02:17:13.905Z,6.00
2023-06-14T02:17:26.102Z,6.32
2023-06-14T02:17:38.933Z,5.88
2023-06-14T02:17:50.858Z,5.78
2023-06-14T02:18:03.481Z,5.80
2023-06-14T02:18:15.419Z,6.00
2023-06-14T02:18:27.291Z,5.55
2023-06-14T02:18:39.105Z,5.22
2023-06-14T02:18:51.588Z,6.32
2023-06-14T02:19:05.223Z,6.97
2023-06-14T02:19:17.204Z,7.20
2023-06-14T02:19:28.903Z,7.20
2023-06-14T02:19:40.618Z,6.88
2023-06-14T02:19:52.535Z,6.93
2023-06-14T02:20:06.104Z,7.00
2023-06-14T02:20:18.418Z,7.15
2023-06-14T02:20:30.583Z,6.72
2023-06-14T02:20:42.376Z,6.05
2023-06-14T02:20:55.439Z,5.78
2023-06-14T02:21:07.149Z,5.40
2023-06-14T02:21:19.333Z,5.45
2023-06-14T02:21:31.103Z,6.63
2023-06-14T02:21:42.927Z,7.38
2023-06-14T02:21:54.682Z,7.65
2023-06-14T02:22:06.571Z,7.28
2023-06-14T02:22:18.478Z,5.93
2023-06-14T02:22:30.345Z,5.63
2023-06-14T02:22:43.246Z,6.13
2023-06-14T02:22:55.294Z,6.43
2023-06-14T02:23:08.821Z,5.90
2023-06-14T02:23:20.624Z,8.35
2023-06-14T02:23:35.343Z,8.60
2023-06-14T02:23:47.430Z,6.13
2023-06-14T02:23:59.553Z,5.45
2023-06-14T02:24:12.375Z,5.88
2023-06-14T02:24:24.911Z,6.90
2023-06-14T02:24:36.692Z,7.78
2023-06-14T02:24:49.093Z,7.78
2023-06-14T02:25:03.112Z,6.40
2023-06-14T02:25:14.840Z,5.32
2023-06-14T02:25:28.941Z,6.30
2023-06-14T02:25:41.940Z,6.60
2023-06-14T02:25:53.922Z,6.50
2023-06-14T02:26:05.814Z,7.38
2023-06-14T02:26:17.515Z,8.30
2023-06-14T02:26:30.040Z,7.38
2023-06-14T02:26:42.605Z,6.75
2023-06-14T02:26:55.778Z,6.07
2023-06-14T02:27:07.750Z,6.32
2023-06-14T02:27:19.630Z,7.28
2023-06-14T02:27:31.641Z,7.38
2023-06-14T02:27:43.515Z,7.07
2023-06-14T02:27:56.026Z,6.35
2023-06-14T02:28:07.737Z,6.60
2023-06-14T02:28:20.615Z,6.90
2023-06-14T02:28:32.342Z,6.43
2023-06-14T02:28:44.101Z,6.88
2023-06-14T02:28:55.783Z,6.80
2023-06-14T02:29:09.844Z,6.75
2023-06-14T02:29:22.195Z,6.78
2023-06-14T02:29:33.991Z,6.15
2023-06-14T02:29:45.811Z,6.22
2023-06-14T02:29:58.508Z,7.28
2023-06-14T02:30:11.331Z,7.45
2023-06-14T02:30:23.141Z,7.20
2023-06-14T02:30:34.991Z,7.20
2023-06-14T02:30:46.745Z,6.78
2023-06-14T02:30:58.514Z,6.25
2023-06-14T02:31:10.373Z,6.00
2023-06-14T02:31:23.422Z,7.00
2023-06-14T02:31:35.209Z,7.20
2023-06-14T02:31:49.421Z,6.20
2023-06-14T02:32:01.262Z,5.95
2023-06-14T02:32:13.085Z,6.97
2023-06-14T02:32:24.843Z,7.18
2023-06-14T02:32:36.966Z,6.90
2023-06-14T02:32:49.553Z,7.10
2023-06-14T02:33:02.339Z,6.65
2023-06-14T02:33:14.356Z,6.95
2023-06-14T02:33:26.445Z,6.40
2023-06-14T02:33:38.283Z,6.20
2023-06-14T02:33:50.016Z,5.82
2023-06-14T02:34:01.690Z,6.25
2023-06-14T02:34:13.809Z,6.18
2023-06-14T02:34:25.776Z,6.50
2023-06-14T02:34:37.641Z,7.22
2023-06-14T02:34:50.980Z,7.97
2023-06-14T02:35:02.755Z,7.75
2023-06-14T02:35:14.578Z,6.40
2023-06-14T02:35:27.629Z,6.13
2023-06-14T02:35:39.528Z,6.18
2023-06-14T02:35:51.906Z,5.93
2023-06-14T02:36:04.291Z,5.45
2023-06-14T02:36:16.979Z,5.75
2023-06-14T02:36:30.596Z,5.50
2023-06-14T02:36:42.981Z,6.10
2023-06-14T02:36:55.007Z,5.85
2023-06-14T02:37:06.832Z,5.70
2023-06-14T02:37:18.840Z,6.22
2023-06-14T02:37:30.607Z,6.78
2023-06-14T02:37:43.770Z,7.65
2023-06-14T02:37:55.643Z,7.95
2023-06-14T02:38:08.700Z,7.38
2023-06-14T02:38:20.669Z,6.85
2023-06-14T02:38:33.026Z,7.28
2023-06-14T02:38:44.812Z,7.70
2023-06-14T02:38:58.514Z,6.20
2023-06-14T02:39:11.559Z,5.30
2023-06-14T02:39:24.387Z,5.70
2023-06-14T02:39:36.193Z,6.65
2023-06-14T02:39:47.996Z,8.07
2023-06-14T02:40:00.127Z,7.40
2023-06-14T02:40:12.968Z,5.65
2023-06-14T02:40:24.827Z,5.80
2023-06-14T02:40:37.495Z,6.40
2023-06-14T02:40:49.215Z,7.00
2023-06-14T02:41:02.774Z,6.88
2023-06-14T02:41:14.518Z,7.23
2023-06-14T02:41:27.169Z,6.93
2023-06-14T02:41:39.266Z,6.43
2023-06-14T02:41:51.209Z,6.47
2023-06-14T02:42:02.914Z,6.20
2023-06-14T02:42:14.605Z,6.13
2023-06-14T02:42:27.374Z,5.75
2023-06-14T02:42:39.069Z,6.40
2023-06-14T02:42:50.843Z,6.30
2023-06-14T02:43:03.071Z,5.78
2023-06-14T02:43:14.981Z,5.28
2023-06-14T02:43:26.693Z,5.95
2023-06-14T02:43:39.401Z,5.38
2023-06-14T02:43:51.082Z,7.32
2023-06-14T02:44:02.773Z,8.43
2023-06-14T02:44:14.830Z,9.02
2023-06-14T02:44:28.487Z,7.22
2023-06-14T02:44:40.918Z,6.00
2023-06-14T02:44:52.964Z,6.38
2023-06-14T02:45:05.463Z,7.20
2023-06-14T02:45:17.841Z,7.13
2023-06-14T02:45:30.551Z,7.03
2023-06-14T02:45:42.271Z,7.25
2023-06-14T02:45:54.001Z,6.30
2023-06-14T02:46:05.980Z,6.25
2023-06-14T02:46:17.642Z,7.55
2023-06-14T02:46:29.353Z,6.88
2023-06-14T02:46:41.311Z,7.70
2023-06-14T02:46:53.058Z,9.82
2023-06-14T02:47:06.070Z,8.70
2023-06-14T02:47:17.857Z,6.88
2023-06-14T02:47:31.040Z,6.22
2023-06-14T02:47:42.865Z,6.95
2023-06-14T02:47:56.723Z,7.18
2023-06-14T02:48:08.762Z,5.80
2023-06-14T02:48:20.834Z,6.63
2023-06-14T02:48:32.699Z,7.35
2023-06-14T02:48:45.541Z,7.32
2023-06-14T02:48:57.834Z,7.18
2023-06-14T02:49:09.694Z,6.72
2023-06-14T02:49:21.417Z,6.78
2023-06-14T02:49:33.194Z,6.03
2023-06-14T02:49:45.015Z,5.68
2023-06-14T02:49:56.728Z,5.78
2023-06-14T02:50:09.560Z,5.50